createdAt,value
2018-05-10T00:00:20.342Z,17.38
2018-05-10T00:01:28.986Z,17.31
2018-05-10T00:02:37.636Z,17.28
2018-05-10T00:03:46.273Z,17.31
2018-05-10T00:04:54.919Z,17.3
2018-05-10T00:06:03.571Z,17.27
2018-05-10T00:07:12.217Z,17.14
2018-05-10T00:08:20.871Z,17.17
2018-05-10T00:09:29.776Z,17.16
2018-05-10T00:10:38.689Z,17.22
2018-05-10T00:11:47.336Z,17.16
2018-05-10T00:12:55.987Z,17.12
2018-05-10T00:14:04.632Z,17.14
2018-05-10T00:15:13.278Z,17.12
2018-05-10T00:16:21.925Z,17.07
2018-05-10T00:17:30.573Z,17.09
2018-05-10T00:18:39.217Z,17.01
2018-05-10T00:19:47.864Z,17.01
2018-05-10T00:20:56.509Z,16.95
2018-05-10T00:22:05.203Z,16.91
2018-05-10T00:23:13.808Z,16.89
2018-05-10T00:24:22.855Z,16.86
2018-05-10T00:25:32.160Z,16.82
2018-05-10T00:26:40.803Z,16.82
2018-05-10T00:27:49.462Z,16.84
2018-05-10T00:28:58.368Z,16.76
2018-05-10T00:30:07.016Z,16.77
2018-05-10T00:31:15.658Z,16.74
2018-05-10T00:32:24.310Z,16.74
2018-05-10T00:33:32.968Z,16.73
2018-05-10T00:34:41.607Z,16.66
2018-05-10T00:35:50.523Z,16.64
2018-05-10T00:36:59.174Z,16.62
2018-05-10T00:38:07.819Z,16.79
2018-05-10T00:39:16.474Z,16.64
2018-05-10T00:40:25.117Z,16.68
2018-05-10T00:41:34.034Z,16.69
2018-05-10T00:42:42.951Z,16.62
2018-05-10T00:43:51.598Z,16.72
2018-05-10T00:45:00.247Z,16.73
2018-05-10T00:46:08.889Z,16.73
2018-05-10T00:47:17.533Z,16.72
2018-05-10T00:48:26.182Z,16.66
2018-05-10T00:49:35.112Z,16.66
2018-05-10T00:50:44.023Z,16.74
2018-05-10T00:51:52.669Z,16.73
2018-05-10T00:53:01.317Z,16.74
2018-05-10T00:54:09.969Z,16.69
2018-05-10T00:55:18.617Z,16.74
2018-05-10T00:56:27.265Z,16.66
2018-05-10T00:57:35.907Z,16.64
2018-05-10T00:58:44.568Z,16.65
2018-05-10T00:59:53.475Z,16.66
2018-05-10T01:01:02.121Z,16.64
2018-05-10T01:02:10.765Z,16.66
2018-05-10T01:03:19.415Z,16.65
2018-05-10T01:04:28.148Z,16.65
2018-05-10T01:05:36.708Z,16.59
2018-05-10T01:06:45.356Z,16.61
2018-05-10T01:07:54.265Z,16.68
2018-05-10T01:09:02.914Z,16.59
2018-05-10T01:10:11.829Z,16.65
2018-05-10T01:11:20.742Z,16.65
2018-05-10T01:12:29.394Z,16.68
2018-05-10T01:13:38.037Z,16.51
2018-05-10T01:14:46.686Z,16.54
2018-05-10T01:15:55.334Z,16.54
2018-05-10T01:17:03.988Z,16.4
2018-05-10T01:18:12.631Z,16.44
2018-05-10T01:19:21.281Z,16.4
2018-05-10T01:20:29.931Z,16.36
2018-05-10T01:21:38.581Z,16.37
2018-05-10T01:22:47.491Z,16.29
2018-05-10T01:23:56.139Z,16.29
2018-05-10T01:25:04.786Z,16.28
2018-05-10T01:26:13.428Z,16.22
2018-05-10T01:27:22.080Z,16.17
2018-05-10T01:28:31.036Z,16.12
2018-05-10T01:29:39.683Z,16.17
2018-05-10T01:30:48.327Z,16.18
2018-05-10T01:31:56.977Z,16.12
2018-05-10T01:33:05.897Z,16.12
2018-05-10T01:34:14.546Z,16.06
2018-05-10T01:35:23.185Z,16.06
2018-05-10T01:36:31.833Z,16.02
2018-05-10T01:37:40.482Z,16.06
2018-05-10T01:38:49.133Z,15.99
2018-05-10T01:39:57.781Z,15.99
2018-05-10T01:41:06.425Z,16.02
2018-05-10T01:42:15.070Z,15.99
2018-05-10T01:43:23.718Z,15.98
2018-05-10T01:44:32.377Z,15.98
2018-05-10T01:45:41.287Z,15.98
2018-05-10T01:46:49.933Z,15.91
2018-05-10T01:47:58.579Z,15.85
2018-05-10T01:49:07.232Z,15.85
2018-05-10T01:50:15.873Z,15.81
2018-05-10T01:51:24.523Z,15.84
2018-05-10T01:52:33.167Z,15.83
2018-05-10T01:53:41.816Z,15.83
2018-05-10T01:54:50.456Z,15.81
2018-05-10T01:55:59.363Z,15.83
2018-05-10T01:57:08.008Z,15.78
2018-05-10T01:58:16.651Z,15.8
2018-05-10T01:59:25.301Z,15.75
2018-05-10T02:00:33.946Z,15.83
2018-05-10T02:01:42.591Z,15.76
2018-05-10T02:02:51.234Z,15.85
2018-05-10T02:03:59.884Z,15.83
2018-05-10T02:05:08.531Z,15.78
2018-05-10T02:06:17.176Z,15.73
2018-05-10T02:07:25.820Z,15.81
2018-05-10T02:08:34.474Z,15.76
2018-05-10T02:09:43.117Z,15.72
2018-05-10T02:10:52.028Z,15.66
2018-05-10T02:12:00.663Z,15.66
2018-05-10T02:13:09.584Z,15.66
2018-05-10T02:14:18.232Z,15.65
2018-05-10T02:15:27.142Z,15.62
2018-05-10T02:16:35.791Z,15.5
2018-05-10T02:17:44.427Z,15.54
2018-05-10T02:18:53.079Z,15.59
2018-05-10T02:20:01.731Z,15.51
2018-05-10T02:21:10.386Z,15.59
2018-05-10T02:22:19.025Z,15.37
2018-05-10T02:23:27.673Z,15.48
2018-05-10T02:24:36.577Z,15.41
2018-05-10T02:25:45.505Z,15.39
2018-05-10T02:26:54.145Z,15.37
2018-05-10T02:28:02.799Z,15.36
2018-05-10T02:29:11.438Z,15.32
2018-05-10T02:30:20.097Z,15.27
2018-05-10T02:31:28.747Z,15.26
2018-05-10T02:32:37.389Z,15.26
2018-05-10T02:33:46.308Z,15.23
2018-05-10T02:34:55.219Z,15.23
2018-05-10T02:36:03.874Z,15.17
2018-05-10T02:37:12.517Z,15.15
2018-05-10T02:38:21.437Z,15.17
2018-05-10T02:39:30.339Z,15.17
2018-05-10T02:40:39.267Z,15.05
2018-05-10T02:41:47.925Z,15.05
2018-05-10T02:42:56.847Z,15.02
2018-05-10T02:44:06.043Z,14.99
2018-05-10T02:45:14.707Z,15.02
2018-05-10T02:46:23.615Z,15
2018-05-10T02:47:32.262Z,15.02
2018-05-10T02:48:41.161Z,15
2018-05-10T02:49:49.809Z,15.07
2018-05-10T02:50:58.460Z,15.04
2018-05-10T02:52:07.379Z,15.12
2018-05-10T02:53:16.031Z,15.17
2018-05-10T02:54:24.675Z,15.18
2018-05-10T02:55:33.589Z,15.3
2018-05-10T02:56:42.236Z,15.29
2018-05-10T02:57:50.892Z,15.32
2018-05-10T02:58:59.531Z,15.39
2018-05-10T03:00:08.451Z,15.32
2018-05-10T03:01:17.094Z,15.39
2018-05-10T03:02:25.752Z,15.41
2018-05-10T03:03:34.386Z,15.41
2018-05-10T03:04:43.312Z,15.41
2018-05-10T03:05:51.952Z,15.45
2018-05-10T03:07:00.880Z,15.5
2018-05-10T03:08:09.797Z,15.44
2018-05-10T03:09:18.440Z,15.37
2018-05-10T03:10:27.090Z,15.44
2018-05-10T03:11:36.001Z,15.33
2018-05-10T03:12:44.653Z,15.37
2018-05-10T03:13:53.295Z,15.5
2018-05-10T03:15:02.236Z,15.37
2018-05-10T03:16:11.144Z,15.41
2018-05-10T03:17:19.798Z,15.51
2018-05-10T03:18:28.707Z,15.5
2018-05-10T03:19:37.360Z,15.48
2018-05-10T03:20:45.996Z,15.59
2018-05-10T03:21:54.650Z,15.5
2018-05-10T03:23:03.292Z,15.6
2018-05-10T03:24:11.951Z,15.59
2018-05-10T03:25:20.582Z,15.41
2018-05-10T03:26:29.527Z,15.37
2018-05-10T03:27:38.178Z,15.45
2018-05-10T03:28:46.829Z,15.43
2018-05-10T03:29:55.477Z,15.39
2018-05-10T03:31:04.120Z,15.39
2018-05-10T03:32:13.054Z,15.35
2018-05-10T03:33:21.760Z,15.36
2018-05-10T03:34:30.363Z,15.32
2018-05-10T03:35:38.989Z,15.27
2018-05-10T03:36:47.638Z,15.33
2018-05-10T03:37:56.546Z,15.25
2018-05-10T03:39:05.199Z,15.32
2018-05-10T03:40:13.836Z,15.27
2018-05-10T03:41:22.483Z,15.26
2018-05-10T03:42:31.129Z,15.25
2018-05-10T03:43:40.043Z,15.26
2018-05-10T03:44:48.687Z,15.27
2018-05-10T03:45:58.051Z,15.29
2018-05-10T03:47:06.958Z,15.29
2018-05-10T03:48:15.601Z,15.32
2018-05-10T03:49:24.256Z,15.29
2018-05-10T03:50:32.896Z,15.23
2018-05-10T03:51:41.547Z,15.3
2018-05-10T03:52:50.444Z,15.26
2018-05-10T03:53:59.098Z,15.29
2018-05-10T03:55:07.739Z,15.35
2018-05-10T03:56:16.389Z,15.33
2018-05-10T03:57:25.024Z,15.37
2018-05-10T03:58:33.943Z,15.51
2018-05-10T03:59:42.853Z,15.48
2018-05-10T04:00:51.498Z,15.54
2018-05-10T04:02:00.137Z,15.52
2018-05-10T04:03:08.790Z,15.52
2018-05-10T04:04:17.442Z,15.57
2018-05-10T04:05:26.092Z,15.6
2018-05-10T04:06:35.006Z,15.65
2018-05-10T04:07:43.649Z,15.6
2018-05-10T04:08:52.294Z,15.59
2018-05-10T04:10:00.946Z,15.6
2018-05-10T04:11:09.591Z,15.62
2018-05-10T04:12:18.234Z,15.62
2018-05-10T04:13:26.879Z,15.55
2018-05-10T04:14:35.524Z,15.66
2018-05-10T04:15:44.177Z,15.63
2018-05-10T04:16:52.817Z,15.6
2018-05-10T04:18:01.463Z,15.7
2018-05-10T04:19:10.105Z,15.78
2018-05-10T04:20:18.755Z,15.83
2018-05-10T04:21:27.401Z,15.87
2018-05-10T04:22:36.044Z,15.87
2018-05-10T04:23:44.691Z,15.94
2018-05-10T04:24:53.334Z,15.96
2018-05-10T04:26:01.987Z,15.96
2018-05-10T04:27:10.632Z,16.06
2018-05-10T04:28:19.540Z,16.09
2018-05-10T04:29:28.450Z,16.18
2018-05-10T04:30:37.101Z,16.17
2018-05-10T04:31:45.748Z,16.25
2018-05-10T04:32:54.397Z,16.17
2018-05-10T04:34:03.040Z,16.16
2018-05-10T04:35:11.691Z,16.22
2018-05-10T04:36:20.336Z,16.25
2018-05-10T04:37:28.985Z,16.18
2018-05-10T04:38:37.628Z,16.24
2018-05-10T04:39:46.275Z,16.29
2018-05-10T04:40:54.937Z,16.25
2018-05-10T04:42:03.586Z,16.34
2018-05-10T04:43:12.235Z,16.32
2018-05-10T04:44:20.877Z,16.4
2018-05-10T04:45:29.527Z,16.43
2018-05-10T04:46:38.179Z,16.44
2018-05-10T04:47:46.833Z,16.5
2018-05-10T04:48:55.478Z,16.5
2018-05-10T04:50:04.124Z,16.51
2018-05-10T04:51:12.770Z,16.57
2018-05-10T04:52:21.423Z,16.59
2018-05-10T04:53:30.067Z,16.55
2018-05-10T04:54:38.714Z,16.65
2018-05-10T04:55:47.357Z,16.64
2018-05-10T04:56:56.274Z,16.73
2018-05-10T04:58:04.919Z,16.69
2018-05-10T04:59:13.572Z,16.66
2018-05-10T05:00:22.216Z,16.65
2018-05-10T05:01:30.859Z,16.69
2018-05-10T05:02:39.510Z,16.64
2018-05-10T05:03:48.151Z,16.65
2018-05-10T05:04:56.798Z,16.66
2018-05-10T05:06:05.451Z,16.65
2018-05-10T05:07:14.093Z,16.64
2018-05-10T05:08:23.273Z,16.61
2018-05-10T05:09:31.920Z,16.65
2018-05-10T05:10:40.572Z,16.65
2018-05-10T05:11:49.266Z,16.57
2018-05-10T05:12:57.862Z,16.55
2018-05-10T05:14:06.506Z,16.55
2018-05-10T05:15:15.157Z,16.54
2018-05-10T05:16:23.802Z,16.62
2018-05-10T05:17:32.449Z,16.57
2018-05-10T05:18:41.100Z,16.51
2018-05-10T05:19:49.745Z,16.59
2018-05-10T05:20:58.396Z,16.57
2018-05-10T05:22:07.043Z,16.58
2018-05-10T05:23:15.688Z,16.65
2018-05-10T05:24:24.340Z,16.64
2018-05-10T05:25:32.989Z,16.64
2018-05-10T05:26:41.634Z,16.65
2018-05-10T05:27:50.286Z,16.69
2018-05-10T05:28:58.925Z,16.76
2018-05-10T05:30:07.577Z,16.72
2018-05-10T05:31:16.223Z,16.69
2018-05-10T05:32:24.872Z,16.72
2018-05-10T05:33:33.520Z,16.69
2018-05-10T05:34:42.436Z,16.62
2018-05-10T05:35:51.082Z,16.65
2018-05-10T05:36:59.732Z,16.58
2018-05-10T05:38:08.381Z,16.58
2018-05-10T05:39:17.025Z,16.54
2018-05-10T05:40:25.671Z,16.51
2018-05-10T05:41:34.316Z,16.51
2018-05-10T05:42:43.233Z,16.39
2018-05-10T05:43:51.874Z,16.44
2018-05-10T05:45:00.523Z,16.41
2018-05-10T05:46:09.172Z,16.28
2018-05-10T05:47:17.824Z,16.34
2018-05-10T05:48:26.467Z,16.29
2018-05-10T05:49:35.116Z,16.28
2018-05-10T05:50:43.759Z,16.16
2018-05-10T05:51:52.409Z,16.18
2018-05-10T05:53:01.061Z,16.16
2018-05-10T05:54:09.706Z,16.18
2018-05-10T05:55:18.352Z,16.18
2018-05-10T05:56:27.000Z,16.18
2018-05-10T05:57:35.925Z,16.21
2018-05-10T05:58:44.563Z,16.16
2018-05-10T05:59:53.220Z,16.22
2018-05-10T06:01:01.855Z,16.16
2018-05-10T06:02:10.774Z,16.12
2018-05-10T06:03:19.420Z,16.17
2018-05-10T06:04:28.075Z,16.03
2018-05-10T06:05:36.707Z,16.05
2018-05-10T06:06:45.991Z,15.88
2018-05-10T06:07:54.635Z,15.85
2018-05-10T06:09:03.544Z,15.83
2018-05-10T06:10:12.182Z,15.81
2018-05-10T06:11:20.830Z,15.73
2018-05-10T06:12:29.744Z,15.84
2018-05-10T06:13:38.394Z,15.73
2018-05-10T06:14:47.049Z,15.75
2018-05-10T06:15:55.803Z,15.73
2018-05-10T06:17:04.758Z,15.76
2018-05-10T06:18:13.403Z,15.65
2018-05-10T06:19:22.069Z,15.69
2018-05-10T06:20:30.698Z,15.66
2018-05-10T06:21:39.615Z,15.66
2018-05-10T06:22:48.263Z,15.66
2018-05-10T06:23:56.913Z,15.62
2018-05-10T06:25:05.599Z,15.72
2018-05-10T06:26:14.743Z,15.73
2018-05-10T06:27:23.390Z,15.76
2018-05-10T06:28:32.050Z,15.72
2018-05-10T06:29:40.688Z,15.73
2018-05-10T06:30:49.336Z,15.81
2018-05-10T06:31:57.979Z,15.85
2018-05-10T06:33:06.891Z,15.92
2018-05-10T06:34:15.544Z,15.88
2018-05-10T06:35:24.184Z,15.92
2018-05-10T06:36:32.841Z,15.87
2018-05-10T06:37:41.479Z,15.91
2018-05-10T06:38:50.133Z,15.91
2018-05-10T06:39:59.047Z,16.06
2018-05-10T06:41:07.699Z,16.06
2018-05-10T06:42:16.341Z,16.21
2018-05-10T06:43:25.268Z,16.17
2018-05-10T06:44:33.913Z,16.34
2018-05-10T06:45:42.559Z,16.4
2018-05-10T06:46:51.227Z,16.47
2018-05-10T06:47:59.850Z,16.68
2018-05-10T06:49:08.506Z,16.68
2018-05-10T06:50:17.151Z,16.69
2018-05-10T06:51:25.801Z,16.92
2018-05-10T06:52:34.435Z,16.95
2018-05-10T06:53:43.086Z,17.02
2018-05-10T06:54:51.729Z,17.23
2018-05-10T06:56:00.390Z,17.19
2018-05-10T06:57:09.292Z,17.31
2018-05-10T06:58:17.944Z,17.27
2018-05-10T06:59:26.587Z,17.38
2018-05-10T07:00:35.243Z,17.47
2018-05-10T07:01:44.161Z,17.39
2018-05-10T07:02:52.809Z,17.46
2018-05-10T07:04:01.721Z,17.56
2018-05-10T07:05:10.371Z,17.52
2018-05-10T07:06:19.019Z,17.53
2018-05-10T07:07:27.934Z,17.47
2018-05-10T07:08:36.578Z,17.57
2018-05-10T07:09:45.401Z,17.44
2018-05-10T07:10:53.877Z,17.49
2018-05-10T07:12:02.524Z,17.47
2018-05-10T07:13:11.440Z,17.47
2018-05-10T07:14:20.082Z,17.53
2018-05-10T07:15:28.735Z,17.53
2018-05-10T07:16:37.645Z,17.56
2018-05-10T07:17:46.300Z,17.54
2018-05-10T07:18:55.202Z,17.49
2018-05-10T07:20:03.854Z,17.38
2018-05-10T07:21:12.763Z,17.34
2018-05-10T07:22:21.415Z,17.31
2018-05-10T07:23:30.323Z,17.24
2018-05-10T07:24:38.975Z,17.19
2018-05-10T07:25:47.622Z,17.12
2018-05-10T07:26:56.274Z,17.04
2018-05-10T07:28:04.922Z,16.98
2018-05-10T07:29:13.566Z,16.98
2018-05-10T07:30:22.213Z,16.82
2018-05-10T07:31:30.860Z,16.84
2018-05-10T07:32:39.513Z,16.82
2018-05-10T07:33:48.164Z,16.73
2018-05-10T07:34:56.811Z,16.72
2018-05-10T07:36:05.461Z,16.8
2018-05-10T07:37:14.113Z,16.74
2018-05-10T07:38:23.020Z,16.77
2018-05-10T07:39:31.672Z,16.83
2018-05-10T07:40:40.315Z,16.86
2018-05-10T07:41:48.969Z,16.95
2018-05-10T07:42:57.616Z,16.94
2018-05-10T07:44:06.266Z,17.04
2018-05-10T07:45:15.178Z,17.1
2018-05-10T07:46:23.821Z,17.16
2018-05-10T07:47:32.474Z,17.27
2018-05-10T07:48:41.381Z,17.38
2018-05-10T07:49:50.029Z,17.41
2018-05-10T07:50:58.672Z,17.5
2018-05-10T07:52:07.327Z,17.59
2018-05-10T07:53:15.993Z,17.56
2018-05-10T07:54:24.622Z,17.69
2018-05-10T07:55:33.263Z,17.68
2018-05-10T07:56:41.916Z,17.66
2018-05-10T07:57:50.562Z,17.68
2018-05-10T07:58:59.484Z,17.76
2018-05-10T08:00:08.654Z,17.8
2018-05-10T08:01:17.305Z,17.82
2018-05-10T08:02:25.978Z,17.94
2018-05-10T08:03:34.610Z,18
2018-05-10T08:04:43.526Z,17.94
2018-05-10T08:05:52.168Z,17.95
2018-05-10T08:07:00.820Z,18.12
2018-05-10T08:08:09.735Z,18.09
2018-05-10T08:09:18.652Z,18.13
2018-05-10T08:10:27.292Z,18.15
2018-05-10T08:11:35.945Z,18.19
2018-05-10T08:12:44.591Z,18.28
2018-05-10T08:13:53.251Z,18.39
2018-05-10T08:15:01.897Z,18.45
2018-05-10T08:16:10.816Z,18.45
2018-05-10T08:17:19.470Z,18.52
2018-05-10T08:18:28.125Z,18.57
2018-05-10T08:19:37.034Z,18.55
2018-05-10T08:20:45.944Z,18.67
2018-05-10T08:21:54.849Z,18.76
2018-05-10T08:23:03.497Z,18.74
2018-05-10T08:24:12.240Z,18.67
2018-05-10T08:25:21.139Z,18.63
2018-05-10T08:26:29.795Z,18.6
2018-05-10T08:27:38.436Z,18.53
2018-05-10T08:28:47.095Z,18.53
2018-05-10T08:29:55.744Z,18.61
2018-05-10T08:31:04.397Z,18.6
2018-05-10T08:32:13.036Z,18.66
2018-05-10T08:33:21.699Z,18.78
2018-05-10T08:34:30.345Z,18.67
2018-05-10T08:35:38.997Z,18.67
2018-05-10T08:36:47.652Z,18.71
2018-05-10T08:37:56.682Z,18.68
2018-05-10T08:39:05.334Z,18.58
2018-05-10T08:40:13.989Z,18.53
2018-05-10T08:41:22.642Z,18.53
2018-05-10T08:42:31.806Z,18.57
2018-05-10T08:43:40.459Z,18.63
2018-05-10T08:44:49.102Z,18.76
2018-05-10T08:45:57.761Z,18.88
2018-05-10T08:47:06.401Z,18.86
2018-05-10T08:48:15.055Z,18.98
2018-05-10T08:49:23.698Z,19.01
2018-05-10T08:50:32.359Z,19.09
2018-05-10T08:51:41.003Z,19
2018-05-10T08:52:49.657Z,19.12
2018-05-10T08:53:58.306Z,19.07
2018-05-10T08:55:06.964Z,19.07
2018-05-10T08:56:15.613Z,19.05
2018-05-10T08:57:24.522Z,18.94
2018-05-10T08:58:33.443Z,18.83
2018-05-10T08:59:42.095Z,18.82
2018-05-10T09:00:50.740Z,18.85
2018-05-10T09:01:59.388Z,18.89
2018-05-10T09:03:08.034Z,18.7
2018-05-10T09:04:16.969Z,18.74
2018-05-10T09:05:25.609Z,18.66
2018-05-10T09:06:34.265Z,18.73
2018-05-10T09:07:42.908Z,18.71
2018-05-10T09:08:51.568Z,18.73
2018-05-10T09:10:00.476Z,18.97
2018-05-10T09:11:09.126Z,19.07
2018-05-10T09:12:17.773Z,19.09
2018-05-10T09:13:26.437Z,19.2
2018-05-10T09:14:35.086Z,19.16
2018-05-10T09:15:43.730Z,19.17
2018-05-10T09:16:52.383Z,19.19
2018-05-10T09:18:01.292Z,19.11
2018-05-10T09:19:09.949Z,19.16
2018-05-10T09:20:18.616Z,19.16
2018-05-10T09:21:27.619Z,19.15
2018-05-10T09:22:36.263Z,19.24
2018-05-10T09:23:44.925Z,19.37
2018-05-10T09:24:53.574Z,19.53
2018-05-10T09:26:02.272Z,19.44
2018-05-10T09:27:10.872Z,19.45
2018-05-10T09:28:19.526Z,19.37
2018-05-10T09:29:28.442Z,19.37
2018-05-10T09:30:37.095Z,19.34
2018-05-10T09:31:45.736Z,19.17
2018-05-10T09:32:54.660Z,19.17
2018-05-10T09:34:03.576Z,19.15
2018-05-10T09:35:12.225Z,19.24
2018-05-10T09:36:20.882Z,19.2
2018-05-10T09:37:30.049Z,19.27
2018-05-10T09:38:38.703Z,19.19
2018-05-10T09:39:47.348Z,19.29
2018-05-10T09:40:56.011Z,19.27
2018-05-10T09:42:04.919Z,19.39
2018-05-10T09:43:13.573Z,19.49
2018-05-10T09:44:22.219Z,19.59
2018-05-10T09:45:30.878Z,19.66
2018-05-10T09:46:39.517Z,19.59
2018-05-10T09:47:48.171Z,19.57
2018-05-10T09:48:56.819Z,19.49
2018-05-10T09:50:05.479Z,19.41
2018-05-10T09:51:14.127Z,19.23
2018-05-10T09:52:22.772Z,19.12
2018-05-10T09:53:31.684Z,19.12
2018-05-10T09:54:40.332Z,18.94
2018-05-10T09:55:48.991Z,18.82
2018-05-10T09:56:57.638Z,18.7
2018-05-10T09:58:06.286Z,18.55
2018-05-10T09:59:14.936Z,18.55
2018-05-10T10:00:23.585Z,18.43
2018-05-10T10:01:32.238Z,18.34
2018-05-10T10:02:40.898Z,18.3
2018-05-10T10:03:49.807Z,18.27
2018-05-10T10:04:58.477Z,18.26
2018-05-10T10:06:07.191Z,18.12
2018-05-10T10:07:15.779Z,18.08
2018-05-10T10:08:24.425Z,18.06
2018-05-10T10:09:33.076Z,17.95
2018-05-10T10:10:41.728Z,17.93
2018-05-10T10:11:50.907Z,17.9
2018-05-10T10:12:59.556Z,17.88
2018-05-10T10:14:08.202Z,17.82
2018-05-10T10:15:17.117Z,17.75
2018-05-10T10:16:25.773Z,17.75
2018-05-10T10:17:34.430Z,17.75
2018-05-10T10:18:43.074Z,17.72
2018-05-10T10:19:51.736Z,17.73
2018-05-10T10:21:00.654Z,17.76
2018-05-10T10:22:09.310Z,17.65
2018-05-10T10:23:17.957Z,17.56
2018-05-10T10:24:26.607Z,17.54
2018-05-10T10:25:35.515Z,17.53
2018-05-10T10:26:44.170Z,17.53
2018-05-10T10:27:53.366Z,17.56
2018-05-10T10:29:02.274Z,17.38
2018-05-10T10:30:10.923Z,17.31
2018-05-10T10:31:19.830Z,17.31
2018-05-10T10:32:28.894Z,17.3
2018-05-10T10:33:37.497Z,17.32
2018-05-10T10:34:46.149Z,17.39
2018-05-10T10:35:54.791Z,17.34
2018-05-10T10:37:03.446Z,17.42
2018-05-10T10:38:12.103Z,17.44
2018-05-10T10:39:20.747Z,17.54
2018-05-10T10:40:29.924Z,17.53
2018-05-10T10:41:38.579Z,17.53
2018-05-10T10:42:47.226Z,17.59
2018-05-10T10:43:55.883Z,17.73
2018-05-10T10:45:04.791Z,17.8
2018-05-10T10:46:13.440Z,17.94
2018-05-10T10:47:22.087Z,17.86
2018-05-10T10:48:30.743Z,17.8
2018-05-10T10:49:39.388Z,17.75
2018-05-10T10:50:48.039Z,17.73
2018-05-10T10:51:56.690Z,17.72
2018-05-10T10:53:05.336Z,17.69
2018-05-10T10:54:13.988Z,17.65
2018-05-10T10:55:22.637Z,17.56
2018-05-10T10:56:31.278Z,17.59
2018-05-10T10:57:39.929Z,17.46
2018-05-10T10:58:48.568Z,17.38
2018-05-10T10:59:57.312Z,17.37
2018-05-10T11:01:06.265Z,17.34
2018-05-10T11:02:14.903Z,17.35
2018-05-10T11:03:23.811Z,17.34
2018-05-10T11:04:32.462Z,17.31
2018-05-10T11:05:41.116Z,17.2
2018-05-10T11:06:49.773Z,17.17
2018-05-10T11:07:58.685Z,17.1
2018-05-10T11:09:07.379Z,17.12
2018-05-10T11:10:16.250Z,17.07
2018-05-10T11:11:24.901Z,17.02
2018-05-10T11:12:33.549Z,16.86
2018-05-10T11:13:42.188Z,16.82
2018-05-10T11:14:50.838Z,16.73
2018-05-10T11:15:59.561Z,16.74
2018-05-10T11:17:08.144Z,16.62
2018-05-10T11:18:17.045Z,16.68
2018-05-10T11:19:25.696Z,16.62
2018-05-10T11:20:34.342Z,16.64
2018-05-10T11:21:42.996Z,16.62
2018-05-10T11:22:51.643Z,16.5
2018-05-10T11:24:00.573Z,16.44
2018-05-10T11:25:09.218Z,16.37
2018-05-10T11:26:17.864Z,16.28
2018-05-10T11:27:26.608Z,16.37
2018-05-10T11:28:35.167Z,16.29
2018-05-10T11:29:43.819Z,16.29
2018-05-10T11:30:52.460Z,16.24
2018-05-10T11:32:01.116Z,16.16
2018-05-10T11:33:09.762Z,16.17
2018-05-10T11:34:18.412Z,16.18
2018-05-10T11:35:27.049Z,16.18
2018-05-10T11:36:35.714Z,16.18
2018-05-10T11:37:44.361Z,16.12
2018-05-10T11:38:53.011Z,16.13
2018-05-10T11:40:01.650Z,16.13
2018-05-10T11:41:10.568Z,16.17
2018-05-10T11:42:19.219Z,16.17
2018-05-10T11:43:27.871Z,16.09
2018-05-10T11:44:36.595Z,16.03
2018-05-10T11:45:45.159Z,16.08
2018-05-10T11:46:53.809Z,16.05
2018-05-10T11:48:02.454Z,16.05
2018-05-10T11:49:11.112Z,16.1
2018-05-10T11:50:19.752Z,16.17
2018-05-10T11:51:28.399Z,16.16
2018-05-10T11:52:37.045Z,16.24
2018-05-10T11:53:45.699Z,16.22
2018-05-10T11:54:54.342Z,16.32
2018-05-10T11:56:02.992Z,16.32
2018-05-10T11:57:11.643Z,16.32
2018-05-10T11:58:20.292Z,16.41
2018-05-10T11:59:28.937Z,16.36
2018-05-10T12:00:37.586Z,16.4
2018-05-10T12:01:46.231Z,16.4
2018-05-10T12:02:54.874Z,16.41
2018-05-10T12:04:03.531Z,16.37
2018-05-10T12:05:12.178Z,16.34
2018-05-10T12:06:20.827Z,16.37
2018-05-10T12:07:29.470Z,16.44
2018-05-10T12:08:38.391Z,16.4
2018-05-10T12:09:47.040Z,16.32
2018-05-10T12:10:55.687Z,16.36
2018-05-10T12:12:04.330Z,16.29
2018-05-10T12:13:12.983Z,16.25
2018-05-10T12:14:21.630Z,16.32
2018-05-10T12:15:30.279Z,16.25
2018-05-10T12:16:38.922Z,16.25
2018-05-10T12:17:47.578Z,16.18
2018-05-10T12:18:56.755Z,16.24
2018-05-10T12:20:05.667Z,16.29
2018-05-10T12:21:14.319Z,16.12
2018-05-10T12:22:22.962Z,16.09
2018-05-10T12:23:31.609Z,16.09
2018-05-10T12:24:40.265Z,16.09
2018-05-10T12:25:48.918Z,15.94
2018-05-10T12:26:57.559Z,15.9
2018-05-10T12:28:06.207Z,15.87
2018-05-10T12:29:15.118Z,15.91
2018-05-10T12:30:23.788Z,15.87
2018-05-10T12:31:32.786Z,15.85
2018-05-10T12:32:41.437Z,15.78
2018-05-10T12:33:50.350Z,15.75
2018-05-10T12:34:59.267Z,15.66
2018-05-10T12:36:07.916Z,15.63
2018-05-10T12:37:16.565Z,15.6
2018-05-10T12:38:25.210Z,15.52
2018-05-10T12:39:33.855Z,15.54
2018-05-10T12:40:42.506Z,15.45
2018-05-10T12:41:51.153Z,15.41
2018-05-10T12:42:59.799Z,15.39
2018-05-10T12:44:08.443Z,15.35
2018-05-10T12:45:17.096Z,15.35
2018-05-10T12:46:25.742Z,15.25
2018-05-10T12:47:34.389Z,15.22
2018-05-10T12:48:43.133Z,15.18
2018-05-10T12:49:51.684Z,15.18
2018-05-10T12:51:00.329Z,15.17
2018-05-10T12:52:08.975Z,15.23
2018-05-10T12:53:17.627Z,15.25
2018-05-10T12:54:26.274Z,15.26
2018-05-10T12:55:34.921Z,15.19
2018-05-10T12:56:43.838Z,15.14
2018-05-10T12:57:52.748Z,15.17
2018-05-10T12:59:01.394Z,15.1
2018-05-10T13:00:10.040Z,15.15
2018-05-10T13:01:18.948Z,15.1
2018-05-10T13:02:27.591Z,15.02
2018-05-10T13:03:36.237Z,15.07
2018-05-10T13:04:44.885Z,14.94
2018-05-10T13:05:53.531Z,14.94
2018-05-10T13:07:02.174Z,14.9
2018-05-10T13:08:10.827Z,14.87
2018-05-10T13:09:19.471Z,14.92
2018-05-10T13:10:28.118Z,14.89
2018-05-10T13:11:36.758Z,14.89
2018-05-10T13:12:45.407Z,14.93
2018-05-10T13:13:54.321Z,14.89
2018-05-10T13:15:02.966Z,14.85
2018-05-10T13:16:11.629Z,14.71
2018-05-10T13:17:20.257Z,14.73
2018-05-10T13:18:28.906Z,14.67
2018-05-10T13:19:37.556Z,14.59
2018-05-10T13:20:46.206Z,14.66
2018-05-10T13:21:55.240Z,14.59
2018-05-10T13:23:03.883Z,14.61
2018-05-10T13:24:12.531Z,14.56
2018-05-10T13:25:21.182Z,14.55
2018-05-10T13:26:30.351Z,14.55
2018-05-10T13:27:39.000Z,14.58
2018-05-10T13:28:47.994Z,14.53
2018-05-10T13:29:56.921Z,14.44
2018-05-10T13:31:05.566Z,14.51
2018-05-10T13:32:14.212Z,14.48
2018-05-10T13:33:22.856Z,14.44
2018-05-10T13:34:31.499Z,14.45
2018-05-10T13:35:40.149Z,14.4
2018-05-10T13:36:48.794Z,14.45
2018-05-10T13:37:57.441Z,14.45
2018-05-10T13:39:06.083Z,14.49
2018-05-10T13:40:14.734Z,14.45
2018-05-10T13:41:23.643Z,14.38
2018-05-10T13:42:32.286Z,14.41
2018-05-10T13:43:40.931Z,14.38
2018-05-10T13:44:49.582Z,14.38
2018-05-10T13:45:58.226Z,14.41
2018-05-10T13:47:06.936Z,14.48
2018-05-10T13:48:15.953Z,14.49
2018-05-10T13:49:24.605Z,14.48
2018-05-10T13:50:33.248Z,14.41
2018-05-10T13:51:41.896Z,14.4
2018-05-10T13:52:50.545Z,14.48
2018-05-10T13:53:59.183Z,14.4
2018-05-10T13:55:07.835Z,14.44
2018-05-10T13:56:16.475Z,14.44
2018-05-10T13:57:25.131Z,14.4
2018-05-10T13:58:33.765Z,14.41
2018-05-10T13:59:42.415Z,14.43
2018-05-10T14:00:51.058Z,14.41
2018-05-10T14:01:59.714Z,14.37
2018-05-10T14:03:08.351Z,14.43
2018-05-10T14:04:16.999Z,14.41
2018-05-10T14:05:25.644Z,14.41
2018-05-10T14:06:34.298Z,14.43
2018-05-10T14:07:42.946Z,14.43
2018-05-10T14:08:51.588Z,14.48
2018-05-10T14:10:00.231Z,14.48
2018-05-10T14:11:08.914Z,14.44
2018-05-10T14:12:17.531Z,14.55
2018-05-10T14:13:26.173Z,14.48
2018-05-10T14:14:34.830Z,14.56
2018-05-10T14:15:43.464Z,14.52
2018-05-10T14:16:52.119Z,14.49
2018-05-10T14:18:00.767Z,14.59
2018-05-10T14:19:09.417Z,14.66
2018-05-10T14:20:18.054Z,14.7
2018-05-10T14:21:26.716Z,14.68
2018-05-10T14:22:35.361Z,14.73
2018-05-10T14:23:44.010Z,14.73
2018-05-10T14:24:52.655Z,14.9
2018-05-10T14:26:01.570Z,14.87
2018-05-10T14:27:10.223Z,14.87
2018-05-10T14:28:19.135Z,14.87
2018-05-10T14:29:27.791Z,14.96
2018-05-10T14:30:36.426Z,14.89
2018-05-10T14:31:45.077Z,14.94
2018-05-10T14:32:53.718Z,15.08
2018-05-10T14:34:02.654Z,15.04
2018-05-10T14:35:11.294Z,15.02
2018-05-10T14:36:20.214Z,15.17
2018-05-10T14:37:28.863Z,15.15
2018-05-10T14:38:37.512Z,15.18
2018-05-10T14:39:46.147Z,15.07
2018-05-10T14:40:54.794Z,15.15
2018-05-10T14:42:03.701Z,15.14
2018-05-10T14:43:12.361Z,15.12
2018-05-10T14:44:20.993Z,15.1
2018-05-10T14:45:29.910Z,15.15
2018-05-10T14:46:38.609Z,15.22